sensor_id;sensor_type;location;lat;lon;timestamp;P1;durP1;ratioP1;P2;durP2;ratioP2
18146;SDS011;9199;48.832;9.182;2023-06-14T00:00:02;7.65;;;3.72;;
18146;SDS011;9199;48.832;9.182;2023-06-14T00:02:31;8.60;;;4.10;;
18146;SDS011;9199;48.832;9.182;2023-06-14T00:04:57;7.85;;;4.20;;
18146;SDS011;9199;48.832;9.182;2023-06-14T00:07:33;8.52;;;4.13;;
18146;SDS011;9199;48.832;9.182;2023-06-14T00:10:01;7.97;;;4.95;;
18146;SDS011;9199;48.832;9.182;2023-06-14T00:12:29;8.80;;;4.68;;
18146;SDS011;9199;48.832;9.182;2023-06-14T00:14:57;7.90;;;4.60;;
18146;SDS011;9199;48.832;9.182;2023-06-14T00:17:26;7.65;;;4.63;;
18146;SDS011;9199;48.832;9.182;2023-06-14T00:19:55;8.68;;;4.60;;
18146;SDS011;9199;48.832;9.182;2023-06-14T00:22:22;8.48;;;4.50;;
18146;SDS011;9199;48.832;9.182;2023-06-14T00:24:50;8.90;;;4.80;;
18146;SDS011;9199;48.832;9.182;2023-06-14T00:27:16;7.40;;;4.57;;
18146;SDS011;9199;48.832;9.182;2023-06-14T00:29:43;9.60;;;4.90;;
18146;SDS011;9199;48.832;9.182;2023-06-14T00:32:11;9.77;;;4.90;;
18146;SDS011;9199;48.832;9.182;2023-06-14T00:34:38;9.63;;;4.78;;
18146;SDS011;9199;48.832;9.182;2023-06-14T00:37:05;7.82;;;4.57;;
18146;SDS011;9199;48.832;9.182;2023-06-14T00:39:31;9.47;;;4.53;;
18146;SDS011;9199;48.832;9.182;2023-06-14T00:41:58;8.05;;;4.40;;
18146;SDS011;9199;48.832;9.182;2023-06-14T00:44:25;7.57;;;4.28;;
18146;SDS011;9199;48.832;9.182;2023-06-14T00:46:51;7.97;;;4.20;;
18146;SDS011;9199;48.832;9.182;2023-06-14T00:49:19;7.32;;;4.30;;
18146;SDS011;9199;48.832;9.182;2023-06-14T00:51:47;11.27;;;4.43;;
18146;SDS011;9199;48.832;9.182;2023-06-14T00:54:13;7.55;;;4.18;;
18146;SDS011;9199;48.832;9.182;2023-06-14T00:56:40;6.80;;;3.97;;
18146;SDS011;9199;48.832;9.182;2023-06-14T00:59:09;8.38;;;4.50;;
18146;SDS011;9199;48.832;9.182;2023-06-14T01:01:36;6.55;;;4.32;;
18146;SDS011;9199;48.832;9.182;2023-06-14T01:04:03;8.27;;;4.13;;
18146;SDS011;9199;48.832;9.182;2023-06-14T01:06:33;8.82;;;4.40;;
18146;SDS011;9199;48.832;9.182;2023-06-14T01:09:09;10.65;;;4.85;;
18146;SDS011;9199;48.832;9.182;2023-06-14T01:11:45;8.88;;;5.00;;
18146;SDS011;9199;48.832;9.182;2023-06-14T01:14:16;8.32;;;4.95;;
18146;SDS011;9199;48.832;9.182;2023-06-14T01:16:44;7.83;;;5.30;;
18146;SDS011;9199;48.832;9.182;2023-06-14T01:19:11;10.75;;;4.75;;
18146;SDS011;9199;48.832;9.182;2023-06-14T01:21:40;10.80;;;4.78;;
18146;SDS011;9199;48.832;9.182;2023-06-14T01:24:09;8.20;;;5.10;;
18146;SDS011;9199;48.832;9.182;2023-06-14T01:26:36;8.60;;;4.90;;
18146;SDS011;9199;48.832;9.182;2023-06-14T01:29:04;9.30;;;4.10;;
18146;SDS011;9199;48.832;9.182;2023-06-14T01:31:33;7.90;;;4.38;;
18146;SDS011;9199;48.832;9.182;2023-06-14T01:34:06;7.07;;;4.25;;
18146;SDS011;9199;48.832;9.182;2023-06-14T01:36:33;9.65;;;4.70;;
18146;SDS011;9199;48.832;9.182;2023-06-14T01:39:01;7.32;;;4.00;;
18146;SDS011;9199;48.832;9.182;2023-06-14T01:41:31;10.97;;;4.47;;
18146;SDS011;9199;48.832;9.182;2023-06-14T01:43:58;9.10;;;4.43;;
18146;SDS011;9199;48.832;9.182;2023-06-14T01:46:27;9.77;;;4.10;;
18146;SDS011;9199;48.832;9.182;2023-06-14T01:48:53;7.68;;;4.50;;
18146;SDS011;9199;48.832;9.182;2023-06-14T01:51:20;8.63;;;3.95;;
18146;SDS011;9199;48.832;9.182;2023-06-14T01:53:47;8.17;;;4.00;;
18146;SDS011;9199;48.832;9.182;2023-06-14T01:56:14;6.90;;;4.20;;
18146;SDS011;9199;48.832;9.182;2023-06-14T01:58:42;7.32;;;4.32;;
18146;SDS011;9199;48.832;9.182;2023-06-14T02:01:09;7.85;;;4.10;;
18146;SDS011;9199;48.832;9.182;2023-06-14T02:03:36;9.23;;;4.40;;
18146;SDS011;9199;48.832;9.182;2023-06-14T02:06:04;10.13;;;4.20;;
18146;SDS011;9199;48.832;9.182;2023-06-14T02:08:30;9.05;;;4.03;;
18146;SDS011;9199;48.832;9.182;2023-06-14T02:10:57;7.45;;;4.18;;
18146;SDS011;9199;48.832;9.182;2023-06-14T02:13:24;7.57;;;4.10;;
18146;SDS011;9199;48.832;9.182;2023-06-14T02:15:52;6.68;;;4.20;;
18146;SDS011;9199;48.832;9.182;2023-06-14T02:18:19;8.07;;;4.40;;
18146;SDS011;9199;48.832;9.182;2023-06-14T02:20:46;8.15;;;4.43;;
18146;SDS011;9199;48.832;9.182;2023-06-14T02:23:13;9.18;;;4.28;;
18146;SDS011;9199;48.832;9.182;2023-06-14T02:25:39;8.43;;;4.50;;
18146;SDS011;9199;48.832;9.182;2023-06-14T02:28:08;6.93;;;4.28;;
18146;SDS011;9199;48.832;9.182;2023-06-14T02:30:34;7.33;;;4.00;;
18146;SDS011;9199;48.832;9.182;2023-06-14T02:33:02;9.68;;;4.30;;
18146;SDS011;9199;48.832;9.182;2023-06-14T02:35:29;9.13;;;4.55;;
18146;SDS011;9199;48.832;9.182;2023-06-14T02:37:56;7.85;;;4.00;;
18146;SDS011;9199;48.832;9.182;2023-06-14T02:40:23;7.35;;;4.30;;
18146;SDS011;9199;48.832;9.182;2023-06-14T02:42:50;7.50;;;4.00;;
18146;SDS011;9199;48.832;9.182;2023-06-14T02:45:17;7.63;;;4.22;;
18146;SDS011;9199;48.832;9.182;2023-06-14T02:47:43;6.45;;;4.00;;
18146;SDS011;9199;48.832;9.182;2023-06-14T02:50:12;6.97;;;4.20;;
18146;SDS011;9199;48.832;9.182;2023-06-14T02:52:38;8.30;;;4.40;;
18146;SDS011;9199;48.832;9.182;2023-06-14T02:55:06;10.13;;;4.60;;
18146;SDS011;9199;48.832;9.182;2023-06-14T02:57:34;7.72;;;4.28;;
18146;SDS011;9199;48.832;9.182;2023-06-14T03:00:01;8.45;;;3.83;;
18146;SDS011;9199;48.832;9.182;2023-06-14T03:02:28;7.63;;;4.35;;
18146;SDS011;9199;48.832;9.182;2023-06-14T03:04:55;7.05;;;4.47;;
18146;SDS011;9199;48.832;9.182;2023-06-14T03:07:27;8.40;;;4.53;;
18146;SDS011;9199;48.832;9.182;2023-06-14T03:09:54;7.57;;;4.53;;
18146;SDS011;9199;48.832;9.182;2023-06-14T03:12:21;6.78;;;4.30;;
18146;SDS011;9199;48.832;9.182;2023-06-14T03:14:48;7.40;;;4.60;;
18146;SDS011;9199;48.832;9.182;2023-06-14T03:17:15;7.40;;;4.07;;
18146;SDS011;9199;48.832;9.182;2023-06-14T03:19:42;7.10;;;4.10;;
18146;SDS011;9199;48.832;9.182;2023-06-14T03:22:09;6.55;;;3.75;;
18146;SDS011;9199;48.832;9.182;2023-06-14T03:24:38;7.63;;;4.45;;
18146;SDS011;9199;48.832;9.182;2023-06-14T03:27:06;7.45;;;4.20;;
18146;SDS011;9199;48.832;9.182;2023-06-14T03:29:34;8.88;;;4.40;;
18146;SDS011;9199;48.832;9.182;2023-06-14T03:32:02;7.60;;;4.40;;
18146;SDS011;9199;48.832;9.182;2023-06-14T03:34:29;8.57;;;4.25;;
18146;SDS011;9199;48.832;9.182;2023-06-14T03:36:56;7.25;;;4.22;;
18146;SDS011;9199;48.832;9.182;2023-06-14T03:39:22;8.57;;;4.68;;
18146;SDS011;9199;48.832;9.182;2023-06-14T03:41:50;8.55;;;4.30;;
18146;SDS011;9199;48.832;9.182;2023-06-14T03:44:18;7.57;;;4.20;;
18146;SDS011;9199;48.832;9.182;2023-06-14T03:46:44;8.85;;;4.55;;
18146;SDS011;9199;48.832;9.182;2023-06-14T03:49:11;9.05;;;4.00;;
18146;SDS011;9199;48.832;9.182;2023-06-14T03:51:38;8.88;;;4.28;;
18146;SDS011;9199;48.832;9.182;2023-06-14T03:54:05;8.35;;;4.50;;
18146;SDS011;9199;48.832;9.182;2023-06-14T03:56:32;9.70;;;4.73;;
18146;SDS011;9199;48.832;9.182;2023-06-14T03:59:00;7.97;;;4.25;;
18146;SDS011;9199;48.832;9.182;2023-06-14T04:01:27;7.40;;;4.35;;
18146;SDS011;9199;48.832;9.182;2023-06-14T04:03:54;9.55;;;4.40;;
18146;SDS011;9199;48.832;9.182;2023-06-14T04:06:22;8.63;;;4.43;;
18146;SDS011;9199;48.832;9.182;2023-06-14T04:08:50;9.87;;;4.67;;
18146;SDS011;9199;48.832;9.182;2023-06-14T04:11:17;9.15;;;4.95;;
18146;SDS011;9199;48.832;9.182;2023-06-14T04:13:44;7.13;;;4.20;;
18146;SDS011;9199;48.832;9.182;2023-06-14T04:16:13;8.55;;;4.32;;
18146;SDS011;9199;48.832;9.182;2023-06-14T04:18:40;8.18;;;4.45;;
18146;SDS011;9199;48.832;9.182;2023-06-14T04:21:06;8.67;;;4.30;;
18146;SDS011;9199;48.832;9.182;2023-06-14T04:23:33;11.40;;;4.75;;
18146;SDS011;9199;48.832;9.182;2023-06-14T04:26:00;8.27;;;4.78;;
18146;SDS011;9199;48.832;9.182;2023-06-14T04:28:27;10.02;;;5.18;;
18146;SDS011;9199;48.832;9.182;2023-06-14T04:30:54;9.02;;;4.85;;
18146;SDS011;9199;48.832;9.182;2023-06-14T04:33:23;8.93;;;4.30;;
18146;SDS011;9199;48.832;9.182;2023-06-14T04:35:50;8.07;;;4.70;;
18146;SDS011;9199;48.832;9.182;2023-06-14T04:38:18;9.25;;;4.80;;
18146;SDS011;9199;48.832;9.182;2023-06-14T04:40:49;8.82;;;4.78;;
18146;SDS011;9199;48.832;9.182;2023-06-14T04:43:18;9.25;;;4.50;;
18146;SDS011;9199;48.832;9.182;2023-06-14T04:45:52;8.63;;;4.77;;
18146;SDS011;9199;48.832;9.182;2023-06-14T04:48:19;10.85;;;4.70;;
18146;SDS011;9199;48.832;9.182;2023-06-14T04:50:48;10.07;;;4.78;;
18146;SDS011;9199;48.832;9.182;2023-06-14T04:53:18;10.77;;;5.35;;
18146;SDS011;9199;48.832;9.182;2023-06-14T04:55:46;9.65;;;4.85;;
18146;SDS011;9199;48.832;9.182;2023-06-14T04:58:13;9.63;;;5.20;;
18146;SDS011;9199;48.832;9.182;2023-06-14T05:00:40;8.40;;;5.30;;
18146;SDS011;9199;48.832;9.182;2023-06-14T05:03:08;9.25;;;5.20;;
18146;SDS011;9199;48.832;9.182;2023-06-14T05:05:38;8.80;;;5.15;;
18146;SDS011;9199;48.832;9.182;2023-06-14T05:08:06;8.90;;;4.80;;
18146;SDS011;9199;48.832;9.182;2023-06-14T05:10:33;9.50;;;5.20;;
18146;SDS011;9199;48.832;9.182;2023-06-14T05:13:01;7.57;;;4.82;;
18146;SDS011;9199;48.832;9.182;2023-06-14T05:15:28;9.35;;;5.32;;
18146;SDS011;9199;48.832;9.182;2023-06-14T05:17:55;8.93;;;4.93;;
18146;SDS011;9199;48.832;9.182;2023-06-14T05:20:22;9.32;;;4.65;;
18146;SDS011;9199;48.832;9.182;2023-06-14T05:22:49;8.33;;;5.00;;
18146;SDS011;9199;48.832;9.182;2023-06-14T05:25:19;10.43;;;5.18;;
18146;SDS011;9199;48.832;9.182;2023-06-14T05:27:46;11.43;;;4.97;;
18146;SDS011;9199;48.832;9.182;2023-06-14T05:30:13;15.10;;;4.90;;
18146;SDS011;9199;48.832;9.182;2023-06-14T05:32:41;10.07;;;4.60;;
18146;SDS011;9199;48.832;9.182;2023-06-14T05:35:08;7.67;;;4.63;;
18146;SDS011;9199;48.832;9.182;2023-06-14T05:37:35;7.72;;;4.80;;
18146;SDS011;9199;48.832;9.182;2023-06-14T05:40:02;7.97;;;5.00;;
18146;SDS011;9199;48.832;9.182;2023-06-14T05:42:32;9.52;;;4.30;;
18146;SDS011;9199;48.832;9.182;2023-06-14T05:44:59;8.80;;;4.53;;
18146;SDS011;9199;48.832;9.182;2023-06-14T05:47:26;7.07;;;4.40;;
18146;SDS011;9199;48.832;9.182;2023-06-14T05:49:52;10.27;;;4.55;;
18146;SDS011;9199;48.832;9.182;2023-06-14T05:52:19;7.80;;;5.00;;
18146;SDS011;9199;48.832;9.182;2023-06-14T05:54:46;8.15;;;5.10;;
18146;SDS011;9199;48.832;9.182;2023-06-14T05:57:14;9.32;;;4.60;;
18146;SDS011;9199;48.832;9.182;2023-06-14T05:59:42;9.93;;;5.10;;
18146;SDS011;9199;48.832;9.182;2023-06-14T06:02:09;8.93;;;5.38;;
18146;SDS011;9199;48.832;9.182;2023-06-14T06:04:35;10.48;;;5.32;;
18146;SDS011;9199;48.832;9.182;2023-06-14T06:07:02;9.35;;;5.43;;
18146;SDS011;9199;48.832;9.182;2023-06-14T06:09:30;8.57;;;5.07;;
18146;SDS011;9199;48.832;9.182;2023-06-14T06:11:57;7.57;;;4.47;;
18146;SDS011;9199;48.832;9.182;2023-06-14T06:14:23;8.55;;;5.20;;
18146;SDS011;9199;48.832;9.182;2023-06-14T06:16:51;11.45;;;5.07;;
18146;SDS011;9199;48.832;9.182;2023-06-14T06:19:19;8.20;;;4.53;;
18146;SDS011;9199;48.832;9.182;2023-06-14T06:21:46;10.68;;;4.47;;
18146;SDS011;9199;48.832;9.182;2023-06-14T06:24:13;7.93;;;4.63;;
18146;SDS011;9199;48.832;9.182;2023-06-14T06:26:40;7.57;;;4.20;;
18146;SDS011;9199;48.832;9.182;2023-06-14T06:29:06;6.55;;;4.25;;
18146;SDS011;9199;48.832;9.182;2023-06-14T06:31:33;9.07;;;4.50;;
18146;SDS011;9199;48.832;9.182;2023-06-14T06:34:01;8.45;;;4.30;;
18146;SDS011;9199;48.832;9.182;2023-06-14T06:36:28;10.07;;;4.20;;
18146;SDS011;9199;48.832;9.182;2023-06-14T06:38:55;7.70;;;4.15;;
18146;SDS011;9199;48.832;9.182;2023-06-14T06:41:22;9.73;;;4.28;;
18146;SDS011;9199;48.832;9.182;2023-06-14T06:43:48;8.27;;;4.35;;
18146;SDS011;9199;48.832;9.182;2023-06-14T06:46:15;10.43;;;4.28;;
18146;SDS011;9199;48.832;9.182;2023-06-14T06:48:43;6.10;;;3.73;;
18146;SDS011;9199;48.832;9.182;2023-06-14T06:51:11;8.13;;;4.35;;
18146;SDS011;9199;48.832;9.182;2023-06-14T06:53:38;7.40;;;4.20;;
18146;SDS011;9199;48.832;9.182;2023-06-14T06:56:04;8.30;;;4.30;;
18146;SDS011;9199;48.832;9.182;2023-06-14T06:58:31;10.07;;;4.40;;
18146;SDS011;9199;48.832;9.182;2023-06-14T07:00:58;9.00;;;4.37;;
18146;SDS011;9199;48.832;9.182;2023-06-14T07:03:25;7.40;;;4.20;;
18146;SDS011;9199;48.832;9.182;2023-06-14T07:05:51;6.10;;;4.45;;
18146;SDS011;9199;48.832;9.182;2023-06-14T07:08:19;11.27;;;4.60;;
18146;SDS011;9199;48.832;9.182;2023-06-14T07:10:46;8.48;;;4.40;;
18146;SDS011;9199;48.832;9.182;2023-06-14T07:13:13;7.70;;;4.40;;
18146;SDS011;9199;48.832;9.182;2023-06-14T07:15:40;7.35;;;4.35;;
18146;SDS011;9199;48.832;9.182;2023-06-14T07:18:06;9.13;;;4.45;;
18146;SDS011;9199;48.832;9.182;2023-06-14T07:20:33;8.77;;;4.43;;
18146;SDS011;9199;48.832;9.182;2023-06-14T07:23:03;10.13;;;4.00;;
18146;SDS011;9199;48.832;9.182;2023-06-14T07:25:31;6.90;;;4.30;;
18146;SDS011;9199;48.832;9.182;2023-06-14T07:27:58;6.40;;;4.28;;
18146;SDS011;9199;48.832;9.182;2023-06-14T07:30:25;9.30;;;4.50;;
18146;SDS011;9199;48.832;9.182;2023-06-14T07:32:52;6.93;;;4.15;;
18146;SDS011;9199;48.832;9.182;2023-06-14T07:35:19;10.88;;;4.78;;
18146;SDS011;9199;48.832;9.182;2023-06-14T07:37:46;5.93;;;4.10;;
18146;SDS011;9199;48.832;9.182;2023-06-14T07:40:13;8.20;;;4.25;;
18146;SDS011;9199;48.832;9.182;2023-06-14T07:42:41;7.38;;;4.30;;
18146;SDS011;9199;48.832;9.182;2023-06-14T07:45:08;9.18;;;4.45;;
18146;SDS011;9199;48.832;9.182;2023-06-14T07:47:35;8.60;;;4.80;;
18146;SDS011;9199;48.832;9.182;2023-06-14T07:50:02;9.70;;;4.73;;
18146;SDS011;9199;48.832;9.182;2023-06-14T07:52:29;8.43;;;4.60;;
18146;SDS011;9199;48.832;9.182;2023-06-14T07:54:55;9.48;;;4.72;;
18146;SDS011;9199;48.832;9.182;2023-06-14T07:57:23;11.77;;;5.00;;
18146;SDS011;9199;48.832;9.182;2023-06-14T07:59:51;9.40;;;4.90;;
18146;SDS011;9199;48.832;9.182;2023-06-14T08:02:18;10.17;;;4.90;;
18146;SDS011;9199;48.832;9.182;2023-06-14T08:04:44;15.00;;;4.93;;
18146;SDS011;9199;48.832;9.182;2023-06-14T08:07:11;10.90;;;5.03;;
18146;SDS011;9199;48.832;9.182;2023-06-14T08:09:38;10.30;;;4.78;;
18146;SDS011;9199;48.832;9.182;2023-06-14T08:12:05;8.63;;;4.50;;
18146;SDS011;9199;48.832;9.182;2023-06-14T08:14:35;9.33;;;4.60;;
18146;SDS011;9199;48.832;9.182;2023-06-14T08:17:03;9.60;;;4.18;;
18146;SDS011;9199;48.832;9.182;2023-06-14T08:19:30;8.38;;;3.95;;
18146;SDS011;9199;48.832;9.182;2023-06-14T08:21:57;10.05;;;4.53;;
18146;SDS011;9199;48.832;9.182;2023-06-14T08:24:23;10.02;;;4.50;;
18146;SDS011;9199;48.832;9.182;2023-06-14T08:26:51;8.53;;;4.20;;
18146;SDS011;9199;48.832;9.182;2023-06-14T08:29:18;9.38;;;4.20;;
18146;SDS011;9199;48.832;9.182;2023-06-14T08:31:46;8.77;;;3.88;;
18146;SDS011;9199;48.832;9.182;2023-06-14T08:34:14;7.75;;;4.07;;
18146;SDS011;9199;48.832;9.182;2023-06-14T08:36:41;6.47;;;4.05;;
18146;SDS011;9199;48.832;9.182;2023-06-14T08:39:07;12.47;;;4.50;;
18146;SDS011;9199;48.832;9.182;2023-06-14T08:41:35;8.32;;;4.50;;
18146;SDS011;9199;48.832;9.182;2023-06-14T08:44:02;10.68;;;4.32;;
18146;SDS011;9199;48.832;9.182;2023-06-14T08:46:29;11.38;;;4.55;;
18146;SDS011;9199;48.832;9.182;2023-06-14T08:48:59;14.02;;;5.10;;
18146;SDS011;9199;48.832;9.182;2023-06-14T08:51:28;11.53;;;4.00;;
18146;SDS011;9199;48.832;9.182;2023-06-14T08:53:59;9.32;;;4.68;;
18146;SDS011;9199;48.832;9.182;2023-06-14T08:56:27;7.55;;;4.35;;
18146;SDS011;9199;48.832;9.182;2023-06-14T08:58:54;8.05;;;3.95;;
18146;SDS011;9199;48.832;9.182;2023-06-14T09:01:22;7.70;;;4.07;;
18146;SDS011;9199;48.832;9.182;2023-06-14T09:03:50;8.50;;;4.30;;
18146;SDS011;9199;48.832;9.182;2023-06-14T09:06:17;7.25;;;4.20;;
18146;SDS011;9199;48.832;9.182;2023-06-14T09:08:46;10.98;;;4.47;;
18146;SDS011;9199;48.832;9.182;2023-06-14T09:11:14;9.90;;;4.10;;
18146;SDS011;9199;48.832;9.182;2023-06-14T09:13:41;6.72;;;4.30;;
18146;SDS011;9199;48.832;9.182;2023-06-14T09:16:08;5.73;;;4.33;;
18146;SDS011;9199;48.832;9.182;2023-06-14T09:18:35;7.82;;;4.20;;
18146;SDS011;9199;48.832;9.182;2023-06-14T09:21:03;7.78;;;4.43;;
18146;SDS011;9199;48.832;9.182;2023-06-14T09:23:33;11.43;;;4.45;;
18146;SDS011;9199;48.832;9.182;2023-06-14T09:26:03;9.90;;;4.72;;
18146;SDS011;9199;48.832;9.182;2023-06-14T09:28:33;6.83;;;3.93;;
18146;SDS011;9199;48.832;9.182;2023-06-14T09:30:59;8.85;;;4.32;;
18146;SDS011;9199;48.832;9.182;2023-06-14T09:33:26;10.88;;;4.72;;
18146;SDS011;9199;48.832;9.182;2023-06-14T09:35:53;5.95;;;4.30;;
18146;SDS011;9199;48.832;9.182;2023-06-14T09:38:21;7.45;;;4.35;;
18146;SDS011;9199;48.832;9.182;2023-06-14T09:40:47;11.10;;;4.47;;
18146;SDS011;9199;48.832;9.182;2023-06-14T09:43:17;7.07;;;4.40;;
18146;SDS011;9199;48.832;9.182;2023-06-14T09:45:46;7.10;;;4.50;;
18146;SDS011;9199;48.832;9.182;2023-06-14T09:48:14;8.35;;;4.60;;
18146;SDS011;9199;48.832;9.182;2023-06-14T09:50:42;7.78;;;4.45;;
18146;SDS011;9199;48.832;9.182;2023-06-14T09:53:12;9.10;;;4.23;;
18146;SDS011;9199;48.832;9.182;2023-06-14T09:55:40;5.63;;;3.90;;
18146;SDS011;9199;48.832;9.182;2023-06-14T09:58:08;6.82;;;4.30;;
18146;SDS011;9199;48.832;9.182;2023-06-14T10:00:38;6.55;;;4.05;;
18146;SDS011;9199;48.832;9.182;2023-06-14T10:03:08;5.80;;;4.10;;
18146;SDS011;9199;48.832;9.182;2023-06-14T10:05:39;6.10;;;3.97;;
18146;SDS011;9199;48.832;9.182;2023-06-14T10:08:10;5.97;;;4.03;;
18146;SDS011;9199;48.832;9.182;2023-06-14T10:10:40;9.00;;;4.07;;
18146;SDS011;9199;48.832;9.182;2023-06-14T10:13:08;11.10;;;3.95;;
18146;SDS011;9199;48.832;9.182;2023-06-14T10:15:38;5.55;;;4.00;;
18146;SDS011;9199;48.832;9.182;2023-06-14T10:18:16;7.07;;;3.80;;
18146;SDS011;9199;48.832;9.182;2023-06-14T10:20:51;6.03;;;3.85;;
18146;SDS011;9199;48.832;9.182;2023-06-14T10:23:24;5.88;;;3.70;;
18146;SDS011;9199;48.832;9.182;2023-06-14T10:25:54;7.20;;;3.65;;
18146;SDS011;9199;48.832;9.182;2023-06-14T10:28:22;7.22;;;3.63;;
18146;SDS011;9199;48.832;9.182;2023-06-14T10:31:03;7.17;;;3.67;;
18146;SDS011;9199;48.832;9.182;2023-06-14T10:33:31;7.85;;;4.00;;
18146;SDS011;9199;48.832;9.182;2023-06-14T10:36:08;9.10;;;3.90;;
18146;SDS011;9199;48.832;9.182;2023-06-14T10:38:36;7.35;;;4.05;;
18146;SDS011;9199;48.832;9.182;2023-06-14T10:41:04;6.68;;;4.05;;
18146;SDS011;9199;48.832;9.182;2023-06-14T10:43:32;7.90;;;3.60;;
18146;SDS011;9199;48.832;9.182;2023-06-14T10:46:13;5.30;;;3.78;;
18146;SDS011;9199;48.832;9.182;2023-06-14T10:48:41;6.93;;;3.75;;
18146;SDS011;9199;48.832;9.182;2023-06-14T10:51:15;5.72;;;3.80;;
18146;SDS011;9199;48.832;9.182;2023-06-14T10:53:45;5.97;;;3.40;;
18146;SDS011;9199;48.832;9.182;2023-06-14T10:56:22;6.20;;;3.60;;
18146;SDS011;9199;48.832;9.182;2023-06-14T10:58:53;7.68;;;3.70;;
18146;SDS011;9199;48.832;9.182;2023-06-14T11:01:26;6.97;;;3.42;;
18146;SDS011;9199;48.832;9.182;2023-06-14T11:04:00;5.70;;;3.35;;
18146;SDS011;9199;48.832;9.182;2023-06-14T11:06:36;8.10;;;3.75;;
18146;SDS011;9199;48.832;9.182;2023-06-14T11:12:13;9.07;;;3.60;;
18146;SDS011;9199;48.832;9.182;2023-06-14T11:14:41;6.63;;;3.70;;
18146;SDS011;9199;48.832;9.182;2023-06-14T11:17:11;6.53;;;3.60;;
18146;SDS011;9199;48.832;9.182;2023-06-14T11:19:38;8.77;;;3.72;;
18146;SDS011;9199;48.832;9.182;2023-06-14T11:22:05;7.57;;;3.40;;
18146;SDS011;9199;48.832;9.182;2023-06-14T11:24:32;6.35;;;3.58;;
18146;SDS011;9199;48.832;9.182;2023-06-14T11:26:59;7.50;;;3.90;;
18146;SDS011;9199;48.832;9.182;2023-06-14T11:29:26;7.10;;;3.15;;
18146;SDS011;9199;48.832;9.182;2023-06-14T11:31:55;7.43;;;3.72;;
18146;SDS011;9199;48.832;9.182;2023-06-14T11:34:24;7.20;;;3.87;;
18146;SDS011;9199;48.832;9.182;2023-06-14T11:36:50;6.93;;;4.05;;
18146;SDS011;9199;48.832;9.182;2023-06-14T11:39:17;5.15;;;3.55;;
18146;SDS011;9199;48.832;9.182;2023-06-14T11:41:52;6.13;;;3.30;;
18146;SDS011;9199;48.832;9.182;2023-06-14T11:44:20;6.18;;;3.35;;
18146;SDS011;9199;48.832;9.182;2023-06-14T11:46:47;7.93;;;3.70;;
18146;SDS011;9199;48.832;9.182;2023-06-14T11:49:13;6.13;;;3.17;;
18146;SDS011;9199;48.832;9.182;2023-06-14T11:51:42;7.20;;;3.25;;
18146;SDS011;9199;48.832;9.182;2023-06-14T11:54:09;6.03;;;3.45;;
18146;SDS011;9199;48.832;9.182;2023-06-14T11:56:36;4.97;;;3.35;;
18146;SDS011;9199;48.832;9.182;2023-06-14T11:59:03;5.60;;;3.40;;
18146;SDS011;9199;48.832;9.182;2023-06-14T12:01:30;5.88;;;3.30;;
18146;SDS011;9199;48.832;9.182;2023-06-14T12:03:58;9.60;;;3.80;;
18146;SDS011;9199;48.832;9.182;2023-06-14T12:06:26;5.70;;;3.50;;
18146;SDS011;9199;48.832;9.182;2023-06-14T12:08:58;6.28;;;3.50;;
18146;SDS011;9199;48.832;9.182;2023-06-14T12:11:28;7.30;;;3.47;;
18146;SDS011;9199;48.832;9.182;2023-06-14T12:13:59;8.52;;;3.53;;
18146;SDS011;9199;48.832;9.182;2023-06-14T12:16:29;6.63;;;3.35;;
18146;SDS011;9199;48.832;9.182;2023-06-14T12:18:59;7.22;;;3.63;;
18146;SDS011;9199;48.832;9.182;2023-06-14T12:21:27;6.85;;;3.80;;
18146;SDS011;9199;48.832;9.182;2023-06-14T12:23:54;6.13;;;3.50;;
18146;SDS011;9199;48.832;9.182;2023-06-14T12:26:22;7.25;;;3.47;;
18146;SDS011;9199;48.832;9.182;2023-06-14T12:28:51;6.53;;;3.50;;
18146;SDS011;9199;48.832;9.182;2023-06-14T12:31:18;5.95;;;3.50;;
18146;SDS011;9199;48.832;9.182;2023-06-14T12:33:46;6.07;;;3.22;;
18146;SDS011;9199;48.832;9.182;2023-06-14T12:36:13;6.67;;;3.40;;
18146;SDS011;9199;48.832;9.182;2023-06-14T12:38:41;7.75;;;3.83;;
18146;SDS011;9199;48.832;9.182;2023-06-14T12:41:08;6.55;;;3.60;;
18146;SDS011;9199;48.832;9.182;2023-06-14T12:43:36;6.97;;;3.60;;
18146;SDS011;9199;48.832;9.182;2023-06-14T12:46:03;6.97;;;3.67;;
18146;SDS011;9199;48.832;9.182;2023-06-14T12:48:30;7.13;;;3.40;;
18146;SDS011;9199;48.832;9.182;2023-06-14T12:50:57;6.88;;;3.50;;
18146;SDS011;9199;48.832;9.182;2023-06-14T12:53:23;7.90;;;3.42;;
18146;SDS011;9199;48.832;9.182;2023-06-14T12:55:50;6.22;;;3.40;;
18146;SDS011;9199;48.832;9.182;2023-06-14T12:58:17;7.72;;;3.40;;
18146;SDS011;9199;48.832;9.182;2023-06-14T13:00:46;5.33;;;3.20;;
18146;SDS011;9199;48.832;9.182;2023-06-14T13:03:12;8.68;;;3.50;;
18146;SDS011;9199;48.832;9.182;2023-06-14T13:05:39;5.80;;;3.30;;
18146;SDS011;9199;48.832;9.182;2023-06-14T13:08:07;6.60;;;3.50;;
18146;SDS011;9199;48.832;9.182;2023-06-14T13:10:34;7.95;;;3.60;;
18146;SDS011;9199;48.832;9.182;2023-06-14T13:13:01;7.40;;;3.67;;
18146;SDS011;9199;48.832;9.182;2023-06-14T13:15:27;5.72;;;3.40;;
18146;SDS011;9199;48.832;9.182;2023-06-14T13:17:56;7.70;;;3.35;;
18146;SDS011;9199;48.832;9.182;2023-06-14T13:20:23;9.23;;;3.63;;
18146;SDS011;9199;48.832;9.182;2023-06-14T13:22:49;6.10;;;3.30;;
18146;SDS011;9199;48.832;9.182;2023-06-14T13:25:16;7.10;;;3.60;;
18146;SDS011;9199;48.832;9.182;2023-06-14T13:27:43;6.38;;;3.90;;
18146;SDS011;9199;48.832;9.182;2023-06-14T13:30:10;6.60;;;3.65;;
18146;SDS011;9199;48.832;9.182;2023-06-14T13:32:37;5.28;;;3.40;;
18146;SDS011;9199;48.832;9.182;2023-06-14T13:35:06;6.63;;;3.75;;
18146;SDS011;9199;48.832;9.182;2023-06-14T13:37:33;5.87;;;3.50;;
18146;SDS011;9199;48.832;9.182;2023-06-14T13:39:59;5.40;;;3.40;;
18146;SDS011;9199;48.832;9.182;2023-06-14T13:42:27;6.50;;;3.53;;
18146;SDS011;9199;48.832;9.182;2023-06-14T13:44:56;5.85;;;3.72;;
18146;SDS011;9199;48.832;9.182;2023-06-14T13:47:23;7.57;;;3.63;;
18146;SDS011;9199;48.832;9.182;2023-06-14T13:49:50;6.00;;;3.50;;
18146;SDS011;9199;48.832;9.182;2023-06-14T13:52:18;8.02;;;3.42;;
18146;SDS011;9199;48.832;9.182;2023-06-14T13:54:45;8.43;;;3.65;;
18146;SDS011;9199;48.832;9.182;2023-06-14T13:57:11;6.00;;;3.80;;
18146;SDS011;9199;48.832;9.182;2023-06-14T13:59:38;6.80;;;3.50;;
18146;SDS011;9199;48.832;9.182;2023-06-14T14:02:05;7.67;;;3.33;;
18146;SDS011;9199;48.832;9.182;2023-06-14T14:04:33;7.78;;;3.40;;
18146;SDS011;9199;48.832;9.182;2023-06-14T14:07:00;7.57;;;3.83;;
18146;SDS011;9199;48.832;9.182;2023-06-14T14:09:28;5.97;;;3.70;;
18146;SDS011;9199;48.832;9.182;2023-06-14T14:11:55;8.35;;;3.60;;
18146;SDS011;9199;48.832;9.182;2023-06-14T14:14:22;7.17;;;3.60;;
18146;SDS011;9199;48.832;9.182;2023-06-14T14:16:49;7.60;;;3.60;;
18146;SDS011;9199;48.832;9.182;2023-06-14T14:19:18;8.57;;;3.45;;
18146;SDS011;9199;48.832;9.182;2023-06-14T14:21:45;6.95;;;3.33;;
18146;SDS011;9199;48.832;9.182;2023-06-14T14:24:12;9.55;;;3.50;;
18146;SDS011;9199;48.832;9.182;2023-06-14T14:26:40;9.87;;;3.80;;
18146;SDS011;9199;48.832;9.182;2023-06-14T14:29:07;6.60;;;3.63;;
18146;SDS011;9199;48.832;9.182;2023-06-14T14:31:36;6.25;;;3.55;;
18146;SDS011;9199;48.832;9.182;2023-06-14T14:34:03;15.90;;;4.13;;
18146;SDS011;9199;48.832;9.182;2023-06-14T14:36:29;9.82;;;4.57;;
18146;SDS011;9199;48.832;9.182;2023-06-14T14:38:58;7.60;;;3.90;;
18146;SDS011;9199;48.832;9.182;2023-06-14T14:41:25;11.32;;;4.82;;
18146;SDS011;9199;48.832;9.182;2023-06-14T14:43:53;6.90;;;3.40;;
18146;SDS011;9199;48.832;9.182;2023-06-14T14:46:19;11.77;;;3.83;;
18146;SDS011;9199;48.832;9.182;2023-06-14T14:48:46;10.73;;;4.10;;
18146;SDS011;9199;48.832;9.182;2023-06-14T14:51:13;8.37;;;3.70;;
18146;SDS011;9199;48.832;9.182;2023-06-14T14:53:39;7.72;;;3.60;;
18146;SDS011;9199;48.832;9.182;2023-06-14T14:56:06;8.00;;;3.55;;
18146;SDS011;9199;48.832;9.182;2023-06-14T14:58:33;6.43;;;3.67;;
18146;SDS011;9199;48.832;9.182;2023-06-14T15:01:01;6.90;;;3.35;;
18146;SDS011;9199;48.832;9.182;2023-06-14T15:03:29;7.70;;;3.40;;
18146;SDS011;9199;48.832;9.182;2023-06-14T15:05:55;6.35;;;3.30;;